createdAt,value
2022-12-04T00:01:47.330Z,75.80
2022-12-04T00:04:15.948Z,79.53
2022-12-04T00:06:44.362Z,68.13
2022-12-04T00:09:13.818Z,79.15
2022-12-04T00:11:42.184Z,71.43
2022-12-04T00:14:10.634Z,72.22
2022-12-04T00:16:39.146Z,69.20
2022-12-04T00:19:07.642Z,58.92
2022-12-04T00:21:36.052Z,74.25
2022-12-04T00:24:04.949Z,71.47
2022-12-04T00:26:34.602Z,65.70
2022-12-04T00:29:03.690Z,78.22
2022-12-04T00:31:32.529Z,70.78
2022-12-04T00:34:02.192Z,75.72
2022-12-04T00:36:30.777Z,79.03
2022-12-04T00:39:00.897Z,75.13
2022-12-04T00:41:31.333Z,60.22
2022-12-04T00:44:03.295Z,62.22
2022-12-04T00:46:31.810Z,72.60
2022-12-04T00:49:02.645Z,73.90
2022-12-04T00:51:31.340Z,63.80
2022-12-04T00:54:00.719Z,69.80
2022-12-04T00:56:29.854Z,66.35
2022-12-04T00:59:00.064Z,71.13
2022-12-04T01:01:30.499Z,67.72
2022-12-04T01:03:59.005Z,61.72
2022-12-04T01:06:32.079Z,64.18
2022-12-04T01:09:03.344Z,67.82
2022-12-04T01:11:32.869Z,67.00
2022-12-04T01:14:01.359Z,61.15
2022-12-04T01:16:32.770Z,73.20
2022-12-04T01:19:01.714Z,78.75
2022-12-04T01:21:30.187Z,75.13
2022-12-04T01:23:59.639Z,65.72
2022-12-04T01:26:28.134Z,66.95
2022-12-04T01:28:56.730Z,69.30
2022-12-04T01:31:25.200Z,81.78
2022-12-04T01:33:53.871Z,68.20
2022-12-04T01:36:25.460Z,71.28
2022-12-04T01:38:54.570Z,69.10
2022-12-04T01:41:25.748Z,68.90
2022-12-04T01:44:15.798Z,69.22
2022-12-04T01:46:46.373Z,72.63
2022-12-04T01:49:19.698Z,78.93
2022-12-04T01:52:25.624Z,64.40
2022-12-04T01:55:00.223Z,64.60
2022-12-04T01:57:32.446Z,73.35
2022-12-04T02:02:34.864Z,69.82
2022-12-04T02:07:33.520Z,69.18
2022-12-04T02:10:03.775Z,65.90
2022-12-04T02:12:47.265Z,66.43
2022-12-04T02:15:24.924Z,76.72
2022-12-04T02:18:19.284Z,74.90
2022-12-04T02:20:59.862Z,72.75
2022-12-04T02:24:14.313Z,58.63
2022-12-04T02:26:56.081Z,58.67
2022-12-04T02:29:59.448Z,65.65
2022-12-04T02:32:34.036Z,69.03
2022-12-04T02:35:13.108Z,73.32
2022-12-04T02:37:50.169Z,67.10
2022-12-04T02:40:26.672Z,79.28
2022-12-04T02:43:02.887Z,64.78
2022-12-04T02:45:37.062Z,72.53
2022-12-04T02:48:07.590Z,69.63
2022-12-04T02:50:40.325Z,79.90
2022-12-04T02:53:15.063Z,67.30
2022-12-04T02:56:08.167Z,78.35
2022-12-04T02:58:43.422Z,72.22
2022-12-04T03:01:22.025Z,67.47
2022-12-04T03:04:01.914Z,72.00
2022-12-04T03:06:34.029Z,76.63
2022-12-04T03:09:20.110Z,74.22
2022-12-04T03:11:59.930Z,63.05
2022-12-04T03:14:33.613Z,75.07
2022-12-04T03:17:09.606Z,64.40
2022-12-04T03:19:46.385Z,68.50
2022-12-04T03:22:18.631Z,86.78
2022-12-04T03:27:30.690Z,75.85
2022-12-04T03:30:09.042Z,64.90
2022-12-04T03:32:53.132Z,75.15
2022-12-04T03:35:44.016Z,81.47
2022-12-04T03:38:18.558Z,74.90
2022-12-04T03:41:03.479Z,71.82
2022-12-04T03:43:58.396Z,65.50
2022-12-04T03:46:40.419Z,73.68
2022-12-04T03:49:18.811Z,89.45
2022-12-04T03:52:10.534Z,80.85
2022-12-04T03:54:46.689Z,87.15
2022-12-04T03:57:20.762Z,90.68
2022-12-04T03:59:56.490Z,82.65
2022-12-04T04:02:29.531Z,71.03
2022-12-04T04:05:00.152Z,74.28
2022-12-04T04:07:39.371Z,67.35
2022-12-04T04:10:16.811Z,81.80
2022-12-04T04:13:14.092Z,85.07
2022-12-04T04:16:06.893Z,66.43
2022-12-04T04:18:54.418Z,77.25
2022-12-04T04:21:46.781Z,81.68
2022-12-04T04:24:45.162Z,74.78
2022-12-04T04:27:14.650Z,71.50
2022-12-04T04:29:48.053Z,69.72
2022-12-04T04:32:32.909Z,73.35
2022-12-04T04:35:10.417Z,75.88
2022-12-04T04:38:17.789Z,69.40
2022-12-04T04:40:58.601Z,69.95
2022-12-04T04:43:59.447Z,64.65
2022-12-04T04:46:34.969Z,70.15
2022-12-04T04:49:07.151Z,63.78
2022-12-04T04:51:36.969Z,80.22
2022-12-04T04:54:10.167Z,69.25
2022-12-04T04:56:46.842Z,69.82
2022-12-04T04:59:15.888Z,81.07
2022-12-04T05:01:46.293Z,67.22
2022-12-04T05:04:14.864Z,64.10
2022-12-04T05:06:44.450Z,71.38
2022-12-04T05:09:12.818Z,73.35
2022-12-04T05:11:41.278Z,78.15
2022-12-04T05:14:09.794Z,74.40
2022-12-04T05:16:40.648Z,75.43
2022-12-04T05:19:27.875Z,59.42
2022-12-04T05:21:57.496Z,77.43
2022-12-04T05:24:26.026Z,69.60
2022-12-04T05:26:54.568Z,76.35
2022-12-04T05:29:22.955Z,80.32
2022-12-04T05:31:51.376Z,67.22
2022-12-04T05:34:19.812Z,75.65
2022-12-04T05:36:48.228Z,78.20
2022-12-04T05:39:16.644Z,65.35
2022-12-04T05:41:45.121Z,71.10
2022-12-04T05:44:13.797Z,66.20
2022-12-04T05:46:42.487Z,81.38
2022-12-04T05:49:11.043Z,67.28
2022-12-04T05:51:39.504Z,63.67
2022-12-04T05:54:08.001Z,83.88
2022-12-04T05:56:36.603Z,66.60
2022-12-04T05:59:04.959Z,89.68
2022-12-04T06:01:33.575Z,62.50
2022-12-04T06:04:02.066Z,84.53
2022-12-04T06:06:30.619Z,67.07
2022-12-04T06:09:00.274Z,59.97
2022-12-04T06:11:31.770Z,58.80
2022-12-04T06:14:01.618Z,73.68
2022-12-04T06:16:33.186Z,77.35
2022-12-04T06:19:07.696Z,66.63
2022-12-04T06:21:38.438Z,72.95
2022-12-04T06:24:07.952Z,72.13
2022-12-04T06:26:36.407Z,68.90
2022-12-04T06:29:04.879Z,64.25
2022-12-04T06:31:36.033Z,71.55
2022-12-04T06:34:05.822Z,77.25
2022-12-04T06:36:35.079Z,56.05
2022-12-04T06:39:04.433Z,71.95
2022-12-04T06:41:33.111Z,72.07
2022-12-04T06:44:01.755Z,76.80
2022-12-04T06:46:32.120Z,82.78
2022-12-04T06:49:01.666Z,84.13
2022-12-04T06:51:33.063Z,75.43
2022-12-04T06:54:02.470Z,78.70
2022-12-04T06:56:33.642Z,59.90
2022-12-04T06:59:03.987Z,83.53
2022-12-04T07:01:34.876Z,61.90
2022-12-04T07:04:04.377Z,70.50
2022-12-04T07:06:35.978Z,51.47
2022-12-04T07:09:06.074Z,73.70
2022-12-04T07:11:34.963Z,62.22
2022-12-04T07:14:04.630Z,71.80
2022-12-04T07:16:39.902Z,59.83
2022-12-04T07:19:14.304Z,69.50
2022-12-04T07:21:43.082Z,70.32
2022-12-04T07:24:17.870Z,65.22
2022-12-04T07:26:46.707Z,59.78
2022-12-04T07:29:15.125Z,73.95
2022-12-04T07:31:44.525Z,70.45
2022-12-04T07:34:13.211Z,60.67
2022-12-04T07:36:42.625Z,69.15
2022-12-04T07:39:11.232Z,57.20
2022-12-04T07:41:39.773Z,64.15
2022-12-04T07:44:09.178Z,56.38
2022-12-04T07:46:37.652Z,70.75
2022-12-04T07:49:06.107Z,52.42
2022-12-04T07:51:34.574Z,62.90
2022-12-04T07:54:04.333Z,64.53
2022-12-04T07:56:33.516Z,61.63
2022-12-04T07:59:02.902Z,56.70
2022-12-04T08:01:32.107Z,45.85
2022-12-04T08:04:01.463Z,62.40
2022-12-04T08:06:32.510Z,66.75
2022-12-04T08:09:06.178Z,58.35
2022-12-04T08:11:37.979Z,51.75
2022-12-04T08:14:08.845Z,51.03
2022-12-04T08:16:37.542Z,51.67
2022-12-04T08:19:06.027Z,55.67
2022-12-04T08:21:34.562Z,47.63
2022-12-04T08:24:03.399Z,52.40
2022-12-04T08:26:33.816Z,50.83
2022-12-04T08:29:03.488Z,53.67
2022-12-04T08:31:34.220Z,54.47
2022-12-04T08:34:05.461Z,47.08
2022-12-04T08:36:34.966Z,53.08
2022-12-04T08:39:03.695Z,56.78
2022-12-04T08:41:32.548Z,57.45
2022-12-04T08:44:01.100Z,53.35
2022-12-04T08:46:29.881Z,47.70
2022-12-04T08:48:58.309Z,50.00
2022-12-04T08:51:29.929Z,46.55
2022-12-04T08:54:00.704Z,62.63
2022-12-04T08:56:30.609Z,52.47
2022-12-04T08:59:00.016Z,42.08
2022-12-04T09:01:29.124Z,61.90
2022-12-04T09:03:58.114Z,44.72
2022-12-04T09:06:26.719Z,56.17
2022-12-04T09:08:56.501Z,45.97
2022-12-04T09:11:27.568Z,47.33
2022-12-04T09:13:56.234Z,46.00
2022-12-04T09:16:26.389Z,47.78
2022-12-04T09:18:55.568Z,49.38
2022-12-04T09:21:25.136Z,37.53
2022-12-04T09:23:54.715Z,49.22
2022-12-04T09:26:24.957Z,37.03
2022-12-04T09:28:55.227Z,37.17
2022-12-04T09:31:24.685Z,38.55
2022-12-04T09:33:54.072Z,45.15
2022-12-04T09:36:23.561Z,34.70
2022-12-04T09:38:54.286Z,36.75
2022-12-04T09:41:40.755Z,40.92
2022-12-04T09:44:27.431Z,42.40
2022-12-04T09:47:16.218Z,33.45
2022-12-04T09:49:50.824Z,35.10
2022-12-04T09:52:41.181Z,37.15
2022-12-04T09:55:23.251Z,42.90
2022-12-04T09:57:59.968Z,42.10
2022-12-04T10:00:33.636Z,33.28
2022-12-04T10:03:05.822Z,44.50
2022-12-04T10:08:28.544Z,39.08
2022-12-04T10:11:06.347Z,31.85
2022-12-04T10:14:05.625Z,45.97
2022-12-04T10:17:08.048Z,37.80
2022-12-04T10:19:58.355Z,31.98
2022-12-04T10:22:33.392Z,39.65
2022-12-04T10:25:36.890Z,34.72
2022-12-04T10:28:31.271Z,45.58
2022-12-04T10:31:02.360Z,43.33
2022-12-04T10:33:36.947Z,40.65
2022-12-04T10:36:06.222Z,46.10
2022-12-04T10:39:00.712Z,34.90
2022-12-04T10:41:38.880Z,39.42
2022-12-04T10:44:13.742Z,52.13
2022-12-04T10:46:45.934Z,37.90
2022-12-04T10:49:28.419Z,43.95
2022-12-04T10:51:56.984Z,40.83
2022-12-04T10:55:00.315Z,37.25
2022-12-04T10:57:43.008Z,29.77
2022-12-04T11:00:34.355Z,46.22
2022-12-04T11:03:08.953Z,40.67
2022-12-04T11:05:39.876Z,39.72
2022-12-04T11:08:21.128Z,37.92
2022-12-04T11:10:59.556Z,40.47
2022-12-04T11:13:28.558Z,39.10
2022-12-04T11:15:58.299Z,39.55
2022-12-04T11:18:32.493Z,42.10
2022-12-04T11:21:18.517Z,46.75
2022-12-04T11:23:49.543Z,35.03
2022-12-04T11:26:42.346Z,40.08
2022-12-04T11:29:17.616Z,44.38
2022-12-04T11:31:52.939Z,39.22
2022-12-04T11:34:26.778Z,46.25
2022-12-04T11:36:57.202Z,33.35
2022-12-04T11:39:32.758Z,33.35
2022-12-04T11:42:13.295Z,42.25
2022-12-04T11:44:56.665Z,38.42
2022-12-04T11:47:27.678Z,35.75
2022-12-04T11:50:13.657Z,40.72
2022-12-04T11:53:03.714Z,50.13
2022-12-04T11:55:40.281Z,31.23
2022-12-04T11:58:19.475Z,36.83
2022-12-04T12:01:09.044Z,34.78
2022-12-04T12:03:54.877Z,49.63
2022-12-04T12:06:40.168Z,33.53
2022-12-04T12:09:32.930Z,48.38
2022-12-04T12:12:13.371Z,33.50
2022-12-04T12:14:46.578Z,40.15
2022-12-04T12:17:14.882Z,39.42
2022-12-04T12:19:54.736Z,34.33
2022-12-04T12:23:01.706Z,29.90
2022-12-04T12:25:55.031Z,37.85
2022-12-04T12:28:45.260Z,35.03
2022-12-04T12:31:38.390Z,31.52
2022-12-04T12:34:27.389Z,39.42
2022-12-04T12:37:01.064Z,35.17
2022-12-04T12:39:43.535Z,30.23
2022-12-04T12:45:02.374Z,37.95
2022-12-04T12:47:38.771Z,43.15
2022-12-04T12:50:20.676Z,46.97
2022-12-04T12:53:03.877Z,43.15
2022-12-04T12:55:47.272Z,32.35
2022-12-04T12:58:21.927Z,34.72
2022-12-04T13:00:58.061Z,34.80
2022-12-04T13:03:35.391Z,36.50
2022-12-04T13:06:09.780Z,39.40
2022-12-04T13:08:47.918Z,38.20
2022-12-04T13:11:24.191Z,35.75
2022-12-04T13:13:56.037Z,32.45
2022-12-04T13:16:35.892Z,41.50
2022-12-04T13:19:22.026Z,29.08
2022-12-04T13:22:01.504Z,30.20
2022-12-04T13:24:44.086Z,30.88
2022-12-04T13:27:23.054Z,37.95
2022-12-04T13:30:14.668Z,32.17
2022-12-04T13:33:13.582Z,35.90
2022-12-04T13:36:10.226Z,31.92
2022-12-04T13:38:58.485Z,40.08
2022-12-04T13:41:28.225Z,29.95
2022-12-04T13:43:59.022Z,32.17
2022-12-04T13:46:32.035Z,41.78
2022-12-04T13:49:08.024Z,34.45
2022-12-04T13:51:40.073Z,28.73
2022-12-04T13:54:12.222Z,33.70
2022-12-04T13:56:44.159Z,32.30
2022-12-04T13:59:27.958Z,35.08
2022-12-04T14:02:07.730Z,34.15
2022-12-04T14:04:44.474Z,34.33
2022-12-04T14:07:27.325Z,31.48
2022-12-04T14:09:58.629Z,39.00
2022-12-04T14:12:31.138Z,29.97
2022-12-04T14:15:03.274Z,28.88
2022-12-04T14:17:38.517Z,29.90
2022-12-04T14:20:21.956Z,38.88
2022-12-04T14:22:50.458Z,47.58
2022-12-04T14:25:18.885Z,37.70
2022-12-04T14:27:51.867Z,41.90
2022-12-04T14:30:28.520Z,41.85
2022-12-04T14:33:08.838Z,37.08
2022-12-04T14:35:47.562Z,39.83
2022-12-04T14:38:20.608Z,30.83
2022-12-04T14:40:56.205Z,32.15
2022-12-04T14:43:28.497Z,29.17
2022-12-04T14:46:12.142Z,35.08
2022-12-04T14:48:59.567Z,31.83
2022-12-04T14:51:53.221Z,33.92
2022-12-04T14:54:54.482Z,30.63
2022-12-04T14:57:47.103Z,44.45
2022-12-04T15:00:25.085Z,26.70
2022-12-04T15:02:59.580Z,33.83
2022-12-04T15:05:32.369Z,35.10
2022-12-04T15:08:04.752Z,38.20
2022-12-04T15:10:53.890Z,34.17
2022-12-04T15:13:30.722Z,41.60
2022-12-04T15:16:28.253Z,29.17
2022-12-04T15:18:59.205Z,30.35
2022-12-04T15:21:40.930Z,35.08
2022-12-04T15:24:11.567Z,35.72
2022-12-04T15:26:40.407Z,31.33
2022-12-04T15:29:09.477Z,33.10
2022-12-04T15:31:53.359Z,34.35
2022-12-04T15:34:25.209Z,31.30
2022-12-04T15:37:07.592Z,28.02
2022-12-04T15:42:18.850Z,34.97
2022-12-04T15:45:10.607Z,31.73
2022-12-04T15:47:41.965Z,34.67
2022-12-04T15:50:13.348Z,34.67
2022-12-04T15:53:01.936Z,31.73
2022-12-04T15:55:39.261Z,25.10
2022-12-04T15:58:38.201Z,32.85
2022-12-04T16:01:09.989Z,32.17
2022-12-04T16:03:41.576Z,29.80
2022-12-04T16:06:18.554Z,29.55
2022-12-04T16:08:50.042Z,31.95
2022-12-04T16:11:21.414Z,29.48
2022-12-04T16:14:03.239Z,46.88
2022-12-04T16:16:31.871Z,29.48
2022-12-04T16:19:05.594Z,33.08
2022-12-04T16:21:34.172Z,32.55
2022-12-04T16:24:06.926Z,30.70
2022-12-04T16:26:35.344Z,38.08
2022-12-04T16:29:03.732Z,27.23
2022-12-04T16:31:32.263Z,30.55
2022-12-04T16:34:00.740Z,34.58
2022-12-04T16:36:29.135Z,39.67
2022-12-04T16:38:57.559Z,44.30
2022-12-04T16:41:25.996Z,55.88
2022-12-04T16:43:57.813Z,68.53
2022-12-04T16:46:28.494Z,55.53
2022-12-04T16:48:58.745Z,40.58
2022-12-04T16:51:30.030Z,34.38
2022-12-04T16:53:58.380Z,39.25
2022-12-04T16:56:26.756Z,34.95
2022-12-04T16:58:55.194Z,41.65
2022-12-04T17:01:29.471Z,29.10
2022-12-04T17:03:58.001Z,42.83
2022-12-04T17:06:26.498Z,37.28
2022-12-04T17:08:56.821Z,43.67
2022-12-04T17:11:25.298Z,32.78
2022-12-04T17:13:53.693Z,29.63
2022-12-04T17:16:22.242Z,33.47
2022-12-04T17:18:51.769Z,27.00
2022-12-04T17:21:20.221Z,31.73
2022-12-04T17:23:49.592Z,24.73
2022-12-04T17:26:18.353Z,40.80
2022-12-04T17:28:49.246Z,27.10
2022-12-04T17:31:26.035Z,35.30
2022-12-04T17:33:56.536Z,36.75
2022-12-04T17:36:27.551Z,33.50
2022-12-04T17:38:57.884Z,33.50
2022-12-04T17:41:26.367Z,30.80
2022-12-04T17:43:54.741Z,33.20
2022-12-04T17:46:24.444Z,29.98
2022-12-04T17:48:56.368Z,45.17
2022-12-04T17:51:25.357Z,35.25
2022-12-04T17:53:53.857Z,42.97
2022-12-04T17:56:24.053Z,38.58
2022-12-04T17:58:53.812Z,60.92
2022-12-04T18:01:25.627Z,66.72
2022-12-04T18:03:56.643Z,44.53
2022-12-04T18:06:29.449Z,40.38
2022-12-04T18:08:58.330Z,38.42
2022-12-04T18:11:29.593Z,44.10
2022-12-04T18:14:10.115Z,39.17
2022-12-04T18:16:45.052Z,34.30
2022-12-04T18:19:14.617Z,40.70
2022-12-04T18:21:42.992Z,41.80
2022-12-04T18:24:12.025Z,65.72
2022-12-04T18:26:43.452Z,35.97
2022-12-04T18:29:14.558Z,40.58
2022-12-04T18:31:43.638Z,42.47
2022-12-04T18:34:13.027Z,39.88
2022-12-04T18:36:42.742Z,42.63
2022-12-04T18:39:13.609Z,43.78
2022-12-04T18:41:42.057Z,41.22
2022-12-04T18:44:10.808Z,37.97
2022-12-04T18:46:39.802Z,46.33
2022-12-04T18:49:11.070Z,44.42
2022-12-04T18:51:45.717Z,48.83
2022-12-04T18:54:22.772Z,54.08
2022-12-04T18:56:51.976Z,56.85
2022-12-04T18:59:23.476Z,58.33
2022-12-04T19:01:53.222Z,36.25
2022-12-04T19:04:23.924Z,45.70
2022-12-04T19:06:54.883Z,62.72
2022-12-04T19:09:47.107Z,53.33
2022-12-04T19:12:15.022Z,35.90
2022-12-04T19:14:43.517Z,44.28
2022-12-04T19:17:12.085Z,47.58
2022-12-04T19:19:40.815Z,44.67
2022-12-04T19:22:09.266Z,44.60
2022-12-04T19:24:37.612Z,41.20
2022-12-04T19:27:12.160Z,46.58
2022-12-04T19:29:42.297Z,44.55
2022-12-04T19:32:11.871Z,48.08
2022-12-04T19:34:40.661Z,36.67
2022-12-04T19:37:09.127Z,39.13
2022-12-04T19:39:37.750Z,62.05
2022-12-04T19:42:06.338Z,65.32
2022-12-04T19:44:50.707Z,40.17
2022-12-04T19:47:20.242Z,42.78
2022-12-04T19:49:48.725Z,44.45
2022-12-04T19:52:17.531Z,37.35
2022-12-04T19:54:46.118Z,35.40
2022-12-04T19:57:15.002Z,40.70
2022-12-04T19:59:57.593Z,48.42
2022-12-04T20:02:26.323Z,47.28
2022-12-04T20:04:54.823Z,46.05
2022-12-04T20:07:23.260Z,51.25
2022-12-04T20:09:54.103Z,42.53
2022-12-04T20:12:23.068Z,52.28
2022-12-04T20:14:51.549Z,41.80
2022-12-04T20:17:19.955Z,60.45
2022-12-04T20:19:48.458Z,52.28
2022-12-04T20:22:16.919Z,44.63
2022-12-04T20:24:45.380Z,48.97
2022-12-04T20:27:13.877Z,62.67
2022-12-04T20:29:42.995Z,36.40
2022-12-04T20:32:11.428Z,37.05
2022-12-04T20:34:43.528Z,39.35
2022-12-04T20:37:12.451Z,38.65
2022-12-04T20:39:40.921Z,40.95
2022-12-04T20:42:09.424Z,70.95
2022-12-04T20:44:37.797Z,45.00
2022-12-04T20:47:06.251Z,49.85
2022-12-04T20:49:34.662Z,48.58
2022-12-04T20:52:03.623Z,59.72
2022-12-04T20:54:35.360Z,53.58
2022-12-04T20:57:07.953Z,93.40
2022-12-04T20:59:36.568Z,49.25
2022-12-04T21:02:05.098Z,44.30
2022-12-04T21:04:37.747Z,53.38
2022-12-04T21:07:06.924Z,58.05
2022-12-04T21:09:35.396Z,50.33
2022-12-04T21:12:24.528Z,51.33
2022-12-04T21:15:11.421Z,42.53
2022-12-04T21:17:40.577Z,36.95
2022-12-04T21:20:10.222Z,45.35
2022-12-04T21:22:39.047Z,48.17
2022-12-04T21:25:10.060Z,46.20
2022-12-04T21:27:38.523Z,43.53
2022-12-04T21:30:07.745Z,47.40
2022-12-04T21:32:36.218Z,38.67
2022-12-04T21:35:04.853Z,43.00
2022-12-04T21:37:34.397Z,40.67
2022-12-04T21:40:03.769Z,45.63
2022-12-04T21:42:32.745Z,36.88
2022-12-04T21:45:04.079Z,40.38
2022-12-04T21:47:32.943Z,41.57
2022-12-04T21:50:01.511Z,45.78
2022-12-04T21:52:30.209Z,39.13
2022-12-04T21:54:59.667Z,48.28
2022-12-04T21:57:28.617Z,45.30
2022-12-04T21:59:57.256Z,44.63
2022-12-04T22:02:26.148Z,37.63
2022-12-04T22:04:54.542Z,46.15
2022-12-04T22:07:23.074Z,45.70
2022-12-04T22:09:51.539Z,43.78
2022-12-04T22:12:48.514Z,44.58
2022-12-04T22:15:08.819Z,56.05
2022-12-04T22:17:37.216Z,64.75
2022-12-04T22:20:06.334Z,54.80
2022-12-04T22:22:35.302Z,49.90
2022-12-04T22:25:03.950Z,59.65
2022-12-04T22:27:32.349Z,50.50
2022-12-04T22:30:02.413Z,54.85
2022-12-04T22:32:31.142Z,57.78
2022-12-04T22:34:59.663Z,49.05
2022-12-04T22:37:28.097Z,44.20
2022-12-04T22:39:56.863Z,43.72
2022-12-04T22:42:25.448Z,44.72
2022-12-04T22:44:53.956Z,40.58
2022-12-04T22:47:22.321Z,38.30
2022-12-04T22:49:50.957Z,57.05
2022-12-04T22:52:19.445Z,66.15
2022-12-04T22:54:51.149Z,50.92
2022-12-04T22:57:19.551Z,49.38
2022-12-04T22:59:48.147Z,46.38
2022-12-04T23:02:16.660Z,53.88
2022-12-04T23:04:45.112Z,57.15
2022-12-04T23:07:13.634Z,43.72
2022-12-04T23:09:42.199Z,56.67
2022-12-04T23:12:10.583Z,53.05
2022-12-04T23:14:38.999Z,54.20
2022-12-04T23:17:07.537Z,50.88
2022-12-04T23:19:35.991Z,49.55
2022-12-04T23:22:04.383Z,64.80
2022-12-04T23:24:33.341Z,53.85
2022-12-04T23:27:02.152Z,45.20
2022-12-04T23:29:51.942Z,47.20
2022-12-04T23:32:19.035Z,48.97
2022-12-04T23:34:47.410Z,64.40
2022-12-04T23:37:15.813Z,54.75
2022-12-04T23:39:44.290Z,65.63
2022-12-04T23:42:12.677Z,53.63
2022-12-04T23:44:41.020Z,54.92
2022-12-04T23:47:09.385Z,47.53
2022-12-04T23:49:37.814Z,61.22
2022-12-04T23:52:06.270Z,54.78
2022-12-04T23:54:34.912Z,53.03
2022-12-04T23:57:03.426Z,55.70
2022-12-04T23:59:31.808Z,50.10
